Time;durP1;ratioP1;P1;durP2;ratioP2;P2;SDS_P1;SDS_P2;PMS_P1;PMS_P2;Temp;Humidity;BMP_temperature;BMP_pressure;BME280_temperature;BME280_humidity;BME280_pressure;Samples;Min_cycle;Max_cycle;Signal;HPM_P1;HPM_P2
2021/08/06 00:02:15;;;;;;;14.18;10.02;;;22.70;83.40;;;;;;5034019;28;20108;-71
2021/08/06 00:04:40;;;;;;;15.52;9.68;;;22.70;83.30;;;;;;5034280;28;20026;-72
2021/08/06 00:07:06;;;;;;;15.88;9.95;;;22.70;83.30;;;;;;5032799;28;20042;-73
2021/08/06 00:09:36;;;;;;;16.45;9.93;;;22.70;83.30;;;;;;5034027;28;20028;-73
2021/08/06 00:12:03;;;;;;;14.13;9.77;;;22.80;83.30;;;;;;5033820;28;20034;-73
2021/08/06 00:14:30;;;;;;;14.23;10.60;;;22.70;83.20;;;;;;5034052;28;20021;-71
2021/08/06 00:16:55;;;;;;;14.20;9.65;;;22.80;83.30;;;;;;5033969;28;20034;-71
2021/08/06 00:19:21;;;;;;;18.48;12.20;;;22.80;83.30;;;;;;5032620;28;20032;-71
2021/08/06 00:21:47;;;;;;;31.67;14.35;;;22.80;83.40;;;;;;5033690;28;20080;-72
2021/08/06 00:24:13;;;;;;;47.05;18.67;;;22.80;83.40;;;;;;5032355;28;20026;-72
2021/08/06 00:26:39;;;;;;;65.82;21.45;;;22.80;84.20;;;;;;5033677;28;20530;-72
2021/08/06 00:29:05;;;;;;;44.85;17.75;;;22.90;83.60;;;;;;5032557;28;20060;-72
2021/08/06 00:31:30;;;;;;;33.80;15.95;;;22.90;83.60;;;;;;5033585;28;20395;-72
2021/08/06 00:33:56;;;;;;;30.60;13.75;;;22.90;83.60;;;;;;5033661;28;20060;-72
2021/08/06 00:36:22;;;;;;;23.45;13.52;;;22.90;83.50;;;;;;5032305;28;20021;-72
2021/08/06 00:38:47;;;;;;;33.95;14.73;;;23.00;83.50;;;;;;5033468;28;20017;-71
2021/08/06 00:41:13;;;;;;;36.03;16.73;;;23.00;83.70;;;;;;5033467;28;20032;-71
2021/08/06 00:43:39;;;;;;;32.35;16.17;;;23.00;83.80;;;;;;5034070;28;20124;-72
2021/08/06 00:46:05;;;;;;;20.38;13.95;;;23.00;83.90;;;;;;5032318;28;20021;-72
2021/08/06 00:48:31;;;;;;;21.42;13.15;;;23.00;83.90;;;;;;5033671;28;20095;-72
2021/08/06 00:50:59;;;;;;;22.75;12.95;;;23.00;83.90;;;;;;5033624;28;20028;-72
2021/08/06 00:53:25;;;;;;;18.60;12.55;;;23.00;84.10;;;;;;5032720;28;20024;-73
2021/08/06 00:55:51;;;;;;;19.30;12.30;;;23.00;84.40;;;;;;5033485;28;20367;-72
2021/08/06 00:58:17;;;;;;;17.10;12.02;;;22.90;84.70;;;;;;5036507;28;20100;-71
2021/08/06 01:00:46;;;;;;;20.38;13.10;;;22.90;84.80;;;;;;5036347;28;20025;-72
2021/08/06 01:03:23;;;;;;;19.70;12.10;;;23.00;84.70;;;;;;5036183;28;20036;-71
2021/08/06 01:06:08;;;;;;;16.98;12.02;;;22.90;84.70;;;;;;5037374;28;20121;-71
2021/08/06 01:08:48;;;;;;;17.65;12.40;;;22.80;84.80;;;;;;5037666;28;20486;-71
2021/08/06 01:11:17;;;;;;;18.73;11.65;;;22.80;85.00;;;;;;5036280;28;20464;-71
2021/08/06 01:13:50;;;;;;;16.25;11.50;;;22.70;85.30;;;;;;5036095;28;20029;-71
2021/08/06 01:16:17;;;;;;;16.52;11.98;;;22.70;85.50;;;;;;5037229;28;20033;-70
2021/08/06 01:19:06;;;;;;;18.73;11.95;;;22.60;85.70;;;;;;5036001;28;20029;-70
2021/08/06 01:21:41;;;;;;;16.38;12.45;;;22.50;86.00;;;;;;5037198;28;20105;-71
2021/08/06 01:24:11;;;;;;;16.75;11.75;;;22.40;86.30;;;;;;5037024;28;20022;-71
2021/08/06 01:26:38;;;;;;;18.02;12.40;;;22.40;86.60;;;;;;5035546;28;20036;-72
2021/08/06 01:29:05;;;;;;;17.50;12.38;;;22.40;86.90;;;;;;5037534;28;20017;-70
2021/08/06 01:31:31;;;;;;;18.92;12.75;;;22.30;87.10;;;;;;5036813;28;20475;-72
2021/08/06 01:33:57;;;;;;;19.83;12.20;;;22.30;87.20;;;;;;5037135;28;20092;-71
2021/08/06 01:36:23;;;;;;;15.82;12.10;;;22.30;87.40;;;;;;5036816;28;20014;-72
2021/08/06 01:38:51;;;;;;;19.35;12.65;;;22.20;87.60;;;;;;5035633;28;20133;-72
2021/08/06 01:41:37;;;;;;;17.90;13.48;;;22.20;87.80;;;;;;5036455;28;20057;-72
2021/08/06 01:44:35;;;;;;;;;;;22.30;88.20;;;;;;5037404;28;20418;-72
2021/08/06 01:47:14;;;;;;;19.65;12.95;;;22.20;87.50;;;;;;5034790;28;19995;-72
2021/08/06 01:49:44;;;;;;;17.13;12.88;;;22.20;88.30;;;;;;5035327;28;20075;-71
2021/08/06 01:52:14;;;;;;;16.15;12.07;;;22.10;88.70;;;;;;5035701;28;20423;-71
2021/08/06 01:54:42;;;;;;;16.60;12.40;;;22.20;89.10;;;;;;5036786;28;20022;-72
2021/08/06 01:57:09;;;;;;;21.60;14.02;;;22.20;89.30;;;;;;5036595;28;20057;-72
2021/08/06 01:59:35;;;;;;;22.60;14.30;;;22.20;89.70;;;;;;5036294;28;20075;-72
2021/08/06 02:02:02;;;;;;;20.70;14.10;;;22.20;90.10;;;;;;5036196;28;20124;-71
2021/08/06 02:04:28;;;;;;;22.30;14.40;;;22.30;90.20;;;;;;5036472;28;20471;-71
2021/08/06 02:06:55;;;;;;;21.30;14.85;;;22.40;90.30;;;;;;5036173;28;20045;-72
2021/08/06 02:09:22;;;;;;;20.75;14.35;;;22.40;90.20;;;;;;5035456;28;20024;-72
2021/08/06 02:11:48;;;;;;;22.00;14.23;;;22.50;90.00;;;;;;5036328;28;20105;-72
2021/08/06 02:14:18;;;;;;;22.05;16.17;;;22.50;89.70;;;;;;5036284;28;20444;-72
2021/08/06 02:16:46;;;;;;;24.30;15.88;;;22.40;89.90;;;;;;5034761;28;20114;-72
2021/08/06 02:19:17;;;;;;;20.27;15.10;;;22.40;90.00;;;;;;5036417;28;20017;-72
2021/08/06 02:21:46;;;;;;;29.00;20.92;;;22.40;90.10;;;;;;5034874;28;20033;-72
2021/08/06 02:24:13;;;;;;;29.30;20.70;;;22.30;90.30;;;;;;5035933;28;20474;-72
2021/08/06 02:26:42;;;;;;;30.92;22.05;;;22.20;90.60;;;;;;5037080;28;20064;-72
2021/08/06 02:29:11;;;;;;;28.70;23.20;;;22.20;91.00;;;;;;5036259;28;20021;-72
2021/08/06 02:31:39;;;;;;;30.23;22.42;;;22.10;91.20;;;;;;5035726;28;20424;-72
2021/08/06 02:34:05;;;;;;;31.77;21.83;;;22.10;91.40;;;;;;5035949;28;20017;-72
2021/08/06 02:36:33;;;;;;;30.13;21.52;;;22.10;91.60;;;;;;5034812;28;20040;-72
2021/08/06 02:38:59;;;;;;;32.33;22.73;;;22.10;91.80;;;;;;5035735;28;20107;-72
2021/08/06 02:41:28;;;;;;;29.50;21.80;;;22.00;92.00;;;;;;5034201;28;20029;-72
2021/08/06 02:43:54;;;;;;;29.83;21.30;;;22.00;92.20;;;;;;5035882;28;20116;-71
2021/08/06 02:46:20;;;;;;;25.17;17.75;;;22.00;92.30;;;;;;5035638;28;20104;-71
2021/08/06 02:48:46;;;;;;;28.90;19.08;;;21.90;92.60;;;;;;5035331;28;20431;-70
2021/08/06 02:51:12;;;;;;;31.73;20.95;;;21.90;92.80;;;;;;5034313;28;20077;-71
2021/08/06 02:53:37;;;;;;;30.63;21.95;;;22.00;93.10;;;;;;5034087;28;20106;-71
2021/08/06 02:56:03;;;;;;;31.73;22.60;;;21.90;93.30;;;;;;5034178;28;20029;-71
2021/08/06 02:58:29;;;;;;;27.42;21.75;;;21.90;93.30;;;;;;5035127;28;20487;-71
2021/08/06 03:00:55;;;;;;;28.27;20.98;;;21.90;93.50;;;;;;5035512;28;20040;-71
2021/08/06 03:03:20;;;;;;;29.67;19.77;;;21.90;93.60;;;;;;5035338;28;20048;-71
2021/08/06 03:05:46;;;;;;;25.15;17.25;;;22.00;93.80;;;;;;5034965;28;20041;-71
2021/08/06 03:08:12;;;;;;;25.30;19.67;;;22.00;94.00;;;;;;5035359;28;20025;-72
2021/08/06 03:10:39;;;;;;;28.45;18.50;;;22.00;94.30;;;;;;5034779;28;20455;-71
2021/08/06 03:13:05;;;;;;;29.20;19.48;;;22.10;94.50;;;;;;5035386;28;20025;-71
2021/08/06 03:15:30;;;;;;;28.67;18.33;;;22.20;94.80;;;;;;5035057;28;20084;-72
2021/08/06 03:17:56;;;;;;;26.27;18.73;;;22.20;95.00;;;;;;5035307;28;20448;-72
2021/08/06 03:20:22;;;;;;;27.73;20.52;;;22.40;95.00;;;;;;5034306;28;20349;-72
2021/08/06 03:22:50;;;;;;;27.20;19.95;;;22.50;95.00;;;;;;5032887;28;20454;-72
2021/08/06 03:25:16;;;;;;;26.13;19.05;;;22.60;94.90;;;;;;5034316;28;20017;-72
2021/08/06 03:27:42;;;;;;;22.92;17.52;;;22.80;94.80;;;;;;5032855;28;20022;-74
2021/08/06 03:30:11;;;;;;;24.60;17.63;;;22.90;94.60;;;;;;5033830;28;20029;-71
2021/08/06 03:32:37;;;;;;;26.58;18.08;;;23.00;94.50;;;;;;5032870;28;20033;-72
2021/08/06 03:35:03;;;;;;;27.40;15.93;;;23.10;94.40;;;;;;5033974;28;20477;-71
2021/08/06 03:37:30;;;;;;;21.83;14.88;;;23.20;94.20;;;;;;5032582;28;20021;-73
2021/08/06 03:39:55;;;;;;;27.42;16.38;;;23.40;93.90;;;;;;5034839;28;20029;-66
2021/08/06 03:42:21;;;;;;;23.13;15.10;;;23.40;93.70;;;;;;5034244;28;20032;-67
2021/08/06 03:44:47;;;;;;;18.45;14.65;;;23.50;93.40;;;;;;5034269;28;20028;-67
2021/08/06 03:47:14;;;;;;;19.60;13.90;;;23.60;93.00;;;;;;5032501;28;20111;-66
2021/08/06 03:49:40;;;;;;;23.80;14.80;;;23.60;92.60;;;;;;5034328;28;20013;-68
2021/08/06 03:52:06;;;;;;;19.73;14.88;;;23.60;92.30;;;;;;5032850;28;20028;-69
2021/08/06 03:54:32;;;;;;;20.92;14.63;;;23.60;92.10;;;;;;5032497;28;20108;-68
2021/08/06 03:56:57;;;;;;;23.35;15.07;;;23.50;92.00;;;;;;5032695;28;20370;-68
2021/08/06 03:59:23;;;;;;;20.92;15.75;;;23.40;92.30;;;;;;5032889;28;20052;-67
2021/08/06 04:01:49;;;;;;;19.55;15.27;;;23.30;92.50;;;;;;5033474;28;20021;-73
2021/08/06 04:04:14;;;;;;;22.20;15.68;;;23.20;92.70;;;;;;5033484;28;20038;-80
2021/08/06 04:06:40;;;;;;;21.83;15.45;;;23.20;92.90;;;;;;5032127;28;20041;-69
2021/08/06 04:09:06;;;;;;;20.67;14.60;;;23.10;93.00;;;;;;5033996;28;20044;-70
2021/08/06 04:11:31;;;;;;;18.88;13.93;;;23.10;93.10;;;;;;5032549;28;20029;-68
2021/08/06 04:13:57;;;;;;;22.38;15.00;;;23.00;93.20;;;;;;5033708;28;20029;-69
2021/08/06 04:16:23;;;;;;;21.13;14.23;;;23.00;93.40;;;;;;5033412;28;20108;-69
2021/08/06 04:18:50;;;;;;;21.80;15.73;;;22.90;93.60;;;;;;5032982;28;20021;-69
2021/08/06 04:21:17;;;;;;;23.63;15.88;;;22.90;93.90;;;;;;5033047;28;20371;-68
2021/08/06 04:23:43;;;;;;;25.25;15.82;;;22.90;94.20;;;;;;5031692;28;20430;-76
2021/08/06 04:26:08;;;;;;;21.75;15.55;;;22.80;94.40;;;;;;5032500;28;20029;-68
2021/08/06 04:28:35;;;;;;;31.67;17.30;;;22.70;94.60;;;;;;5031930;28;20055;-68
2021/08/06 04:31:04;;;;;;;35.03;17.95;;;22.80;94.90;;;;;;5021204;28;20030;-69
2021/08/06 04:33:30;;;;;;;29.90;17.65;;;22.80;95.20;;;;;;5031042;28;20017;-69
2021/08/06 04:35:56;;;;;;;30.15;17.52;;;22.70;95.40;;;;;;5032267;28;20036;-69
2021/08/06 04:38:21;;;;;;;35.22;18.23;;;22.70;95.60;;;;;;5030905;28;20136;-69
2021/08/06 04:40:47;;;;;;;31.52;17.85;;;22.80;95.80;;;;;;5031056;28;20483;-69
2021/08/06 04:43:13;;;;;;;28.10;17.40;;;22.70;96.00;;;;;;5032004;28;20444;-70
2021/08/06 04:45:39;;;;;;;21.80;15.60;;;22.70;96.20;;;;;;5022214;28;20029;-69
2021/08/06 04:48:05;;;;;;;24.77;17.23;;;22.80;96.20;;;;;;5031968;28;20371;-69
2021/08/06 04:50:32;;;;;;;32.03;18.23;;;22.80;96.30;;;;;;5031158;28;20021;-69
2021/08/06 04:52:58;;;;;;;32.47;18.67;;;22.80;96.40;;;;;;5023956;28;20025;-68
2021/08/06 04:55:24;;;;;;;29.83;18.08;;;22.90;96.70;;;;;;5029850;28;20026;-69
2021/08/06 04:57:51;;;;;;;29.45;16.05;;;22.90;96.90;;;;;;5027015;28;20099;-69
2021/08/06 05:00:18;;;;;;;23.48;16.00;;;22.90;96.90;;;;;;5032104;28;20036;-69
2021/08/06 05:02:44;;;;;;;26.17;15.60;;;22.90;97.20;;;;;;5065068;28;20371;-69
2021/08/06 05:05:10;;;;;;;23.60;15.77;;;22.90;96.90;;;;;;5032008;28;20025;-70
2021/08/06 05:07:36;;;;;;;22.00;15.48;;;23.00;96.80;;;;;;5032058;28;20053;-68
2021/08/06 05:10:03;;;;;;;22.20;15.63;;;23.00;96.80;;;;;;5017931;28;20114;-72
2021/08/06 05:12:29;;;;;;;25.20;16.77;;;23.00;97.10;;;;;;5012014;28;20034;-72
2021/08/06 05:14:54;;;;;;;23.00;16.38;;;23.00;97.30;;;;;;5035528;28;20035;-71
2021/08/06 05:17:20;;;;;;;22.92;15.13;;;23.00;97.50;;;;;;5031429;28;20049;-72
2021/08/06 05:19:46;;;;;;;22.33;15.68;;;23.10;97.30;;;;;;5031143;28;20092;-72
2021/08/06 05:22:12;;;;;;;24.58;15.85;;;23.10;97.10;;;;;;5032703;28;20029;-71
2021/08/06 05:24:37;;;;;;;28.45;16.90;;;23.20;96.80;;;;;;5027924;28;20033;-72
2021/08/06 05:27:04;;;;;;;24.88;16.05;;;23.20;96.40;;;;;;5032988;28;20025;-72
2021/08/06 05:29:29;;;;;;;24.13;15.15;;;23.30;96.00;;;;;;5031613;28;20033;-72
2021/08/06 05:31:56;;;;;;;24.60;16.02;;;23.30;95.80;;;;;;5031414;28;20025;-72
2021/08/06 05:34:21;;;;;;;22.75;16.23;;;23.30;95.70;;;;;;5022690;28;20349;-72
2021/08/06 05:36:47;;;;;;;23.88;15.02;;;23.40;95.70;;;;;;5026084;28;20029;-72
2021/08/06 05:39:13;;;;;;;27.17;15.95;;;23.50;95.60;;;;;;5033258;28;20090;-72
2021/08/06 05:41:39;;;;;;;23.20;13.88;;;23.70;95.80;;;;;;5030815;28;20086;-72
2021/08/06 05:44:05;;;;;;;20.35;13.90;;;24.00;95.30;;;;;;5032634;28;20033;-72
2021/08/06 05:46:31;;;;;;;18.13;13.13;;;24.30;94.50;;;;;;5035585;28;20017;-72
2021/08/06 05:48:56;;;;;;;16.73;13.10;;;24.60;93.10;;;;;;5035431;28;20025;-72
2021/08/06 05:51:22;;;;;;;15.85;13.05;;;25.00;92.30;;;;;;5029637;28;20113;-72
2021/08/06 05:53:47;;;;;;;19.90;13.05;;;25.30;91.30;;;;;;5035374;28;20026;-73
2021/08/06 05:56:13;;;;;;;17.30;12.73;;;25.80;90.60;;;;;;5035549;28;20471;-72
2021/08/06 05:58:41;;;;;;;20.95;13.52;;;26.20;88.60;;;;;;5032066;28;20101;-72
2021/08/06 06:01:06;;;;;;;16.92;12.32;;;26.50;86.30;;;;;;5028712;28;20060;-72
2021/08/06 06:03:32;;;;;;;23.33;13.70;;;26.70;83.60;;;;;;5034001;28;20029;-69
2021/08/06 06:05:58;;;;;;;15.77;12.63;;;26.50;81.90;;;;;;5035830;28;20041;-75
2021/08/06 06:08:23;;;;;;;17.27;12.52;;;26.30;81.70;;;;;;5033946;28;20021;-74
2021/08/06 06:10:49;;;;;;;15.38;11.30;;;26.20;82.10;;;;;;5034257;28;20036;-68
2021/08/06 06:13:15;;;;;;;21.88;12.43;;;26.00;82.20;;;;;;5035344;28;20021;-72
2021/08/06 06:15:40;;;;;;;18.98;11.82;;;25.80;82.80;;;;;;5034341;28;20071;-77
2021/08/06 06:18:09;;;;;;;15.52;11.30;;;25.70;83.20;;;;;;5035156;28;20052;-68
2021/08/06 06:20:35;;;;;;;16.58;12.15;;;25.50;83.40;;;;;;5030449;28;20459;-67
2021/08/06 06:23:01;;;;;;;16.75;12.38;;;25.40;83.70;;;;;;5026217;28;20049;-68
2021/08/06 06:25:27;;;;;;;20.75;12.40;;;25.40;84.30;;;;;;5035192;28;20068;-70
2021/08/06 06:27:56;;;;;;;19.17;12.32;;;25.30;84.70;;;;;;5035700;28;20360;-68
2021/08/06 06:30:24;;;;;;;21.35;15.77;;;25.30;84.70;;;;;;5033555;28;20022;-69
2021/08/06 06:32:50;;;;;;;24.35;14.52;;;25.30;84.90;;;;;;5034139;28;20517;-71
2021/08/06 06:35:16;;;;;;;20.30;12.88;;;25.20;85.20;;;;;;5033725;28;20017;-69
2021/08/06 06:37:42;;;;;;;19.50;12.32;;;25.20;85.80;;;;;;5029897;28;20029;-68
2021/08/06 06:40:09;;;;;;;16.00;11.80;;;25.20;85.70;;;;;;5033242;28;20026;-68
2021/08/06 06:42:34;;;;;;;14.15;11.40;;;25.10;84.80;;;;;;5033713;28;20140;-71
2021/08/06 06:45:00;;;;;;;16.50;11.77;;;25.10;84.50;;;;;;5033210;28;20138;-71
2021/08/06 06:47:33;;;;;;;19.30;11.48;;;25.10;84.80;;;;;;5034192;28;20022;-71
2021/08/06 06:49:59;;;;;;;21.73;13.15;;;25.10;85.00;;;;;;5035534;28;20029;-70
2021/08/06 06:52:24;;;;;;;18.58;13.23;;;25.10;85.30;;;;;;5036344;28;20079;-71
2021/08/06 06:54:50;;;;;;;28.75;12.88;;;25.10;85.10;;;;;;5035065;28;20045;-71
2021/08/06 06:57:16;;;;;;;24.90;11.98;;;25.20;84.20;;;;;;5035293;28;20021;-71
2021/08/06 06:59:42;;;;;;;31.77;13.93;;;25.30;83.40;;;;;;5035633;28;20071;-71
2021/08/06 07:02:08;;;;;;;32.58;15.65;;;25.40;83.60;;;;;;5034993;28;20063;-71
2021/08/06 07:04:34;;;;;;;40.58;18.45;;;25.70;84.00;;;;;;5035128;28;20367;-72
2021/08/06 07:06:59;;;;;;;55.33;22.45;;;25.70;83.20;;;;;;5034891;28;20052;-71
2021/08/06 07:09:25;;;;;;;59.08;23.23;;;25.60;83.30;;;;;;5033914;28;20061;-72
2021/08/06 07:11:50;;;;;;;43.78;19.35;;;25.50;83.80;;;;;;5033805;28;20029;-72
2021/08/06 07:14:16;;;;;;;34.13;15.85;;;25.50;83.70;;;;;;5033864;28;20028;-71
2021/08/06 07:16:42;;;;;;;36.45;15.18;;;25.40;83.30;;;;;;5033526;28;20026;-71
2021/08/06 07:19:07;;;;;;;23.75;12.75;;;25.50;82.80;;;;;;5033781;28;20021;-71
2021/08/06 07:21:33;;;;;;;17.13;9.55;;;25.50;81.80;;;;;;5033539;28;20095;-71
2021/08/06 07:23:59;;;;;;;14.32;10.05;;;25.70;81.20;;;;;;5066854;28;20033;-72
2021/08/06 07:26:24;;;;;;;11.15;8.13;;;26.00;81.10;;;;;;5034960;28;20367;-71
2021/08/06 07:28:50;;;;;;;13.27;7.40;;;26.20;78.70;;;;;;5034862;28;20017;-71
2021/08/06 07:31:16;;;;;;;10.45;6.78;;;26.30;76.30;;;;;;5066641;28;20371;-71
2021/08/06 07:33:41;;;;;;;10.10;6.25;;;26.10;75.70;;;;;;5066784;28;20371;-71
2021/08/06 07:36:07;;;;;;;9.60;7.00;;;25.90;76.00;;;;;;5035026;28;20025;-71
2021/08/06 07:38:33;;;;;;;9.27;6.75;;;25.70;76.30;;;;;;5066898;28;20021;-71
2021/08/06 07:40:59;;;;;;;9.32;5.85;;;25.50;76.80;;;;;;5034666;28;20119;-71
2021/08/06 07:43:24;;;;;;;11.23;7.03;;;25.30;77.30;;;;;;5066431;28;20116;-71
2021/08/06 07:45:50;;;;;;;9.77;6.82;;;25.10;78.30;;;;;;5066097;28;20418;-71
2021/08/06 07:48:16;;;;;;;8.35;6.03;;;25.00;79.10;;;;;;5034390;28;20029;-71
2021/08/06 07:50:42;;;;;;;8.23;6.30;;;24.80;79.50;;;;;;5066789;28;20021;-71
2021/08/06 07:53:08;;;;;;;10.35;6.47;;;24.70;79.70;;;;;;5034754;28;20020;-71
2021/08/06 07:55:34;;;;;;;12.93;6.10;;;24.60;80.00;;;;;;5034559;28;20018;-71
2021/08/06 07:57:59;;;;;;;11.60;6.38;;;24.60;80.50;;;;;;5066272;28;20108;-71
2021/08/06 08:00:25;;;;;;;11.25;6.90;;;24.50;80.50;;;;;;5066036;28;20048;-71
2021/08/06 08:02:51;;;;;;;10.45;5.95;;;24.50;80.50;;;;;;5066123;28;20124;-71
2021/08/06 08:05:20;;;;;;;13.05;8.90;;;24.60;79.80;;;;;;5034238;28;20030;-71
2021/08/06 08:07:47;;;;;;;8.77;5.15;;;24.60;79.50;;;;;;5065944;28;20045;-71
2021/08/06 08:10:12;;;;;;;7.47;5.55;;;24.60;78.90;;;;;;5033968;28;20027;-71
2021/08/06 08:12:38;;;;;;;8.70;4.95;;;24.70;78.50;;;;;;5034015;28;20498;-71
2021/08/06 08:15:06;;;;;;;9.98;5.03;;;24.80;78.10;;;;;;5065982;28;20027;-71
2021/08/06 08:17:32;;;;;;;12.05;5.32;;;24.90;77.60;;;;;;5033745;28;20108;-71
2021/08/06 08:19:58;;;;;;;10.98;5.03;;;25.00;76.80;;;;;;5066207;28;20112;-71
2021/08/06 08:22:24;;;;;;;8.40;4.95;;;25.10;76.30;;;;;;5033886;28;20034;-71
2021/08/06 08:24:49;;;;;;;8.98;5.00;;;25.20;76.20;;;;;;5065961;28;20121;-71
2021/08/06 08:27:17;;;;;;;7.55;4.60;;;25.40;75.70;;;;;;5066024;28;20017;-71
2021/08/06 08:29:46;;;;;;;7.38;4.55;;;25.60;75.20;;;;;;5065841;28;20341;-70
2021/08/06 08:32:13;;;;;;;6.40;4.00;;;25.70;75.00;;;;;;5032352;28;20090;-70
2021/08/06 08:34:39;;;;;;;9.93;4.70;;;25.90;74.30;;;;;;5065687;28;20017;-71
2021/08/06 08:37:05;;;;;;;7.47;4.25;;;26.20;73.90;;;;;;5065734;28;20021;-71
2021/08/06 08:39:31;;;;;;;7.55;5.13;;;26.40;72.80;;;;;;5032316;28;20021;-71
2021/08/06 08:42:00;;;;;;;9.93;5.30;;;26.60;72.50;;;;;;5033302;28;20180;-71
2021/08/06 08:44:26;;;;;;;9.05;4.97;;;27.10;72.70;;;;;;5033773;28;20017;-71
2021/08/06 08:46:52;;;;;;;9.90;4.20;;;27.60;71.00;;;;;;5065603;28;20025;-71
2021/08/06 08:49:23;;;;;;;7.55;4.68;;;27.90;69.60;;;;;;5033743;28;20028;-71
2021/08/06 08:51:50;;;;;;;7.07;4.93;;;28.30;68.80;;;;;;5065839;28;20021;-72
2021/08/06 08:54:16;;;;;;;9.98;4.80;;;29.00;68.00;;;;;;5065414;28;20367;-71
2021/08/06 08:56:43;;;;;;;8.02;4.10;;;29.50;66.90;;;;;;5033482;28;20025;-71
2021/08/06 08:59:09;;;;;;;6.82;3.45;;;29.80;64.80;;;;;;5065055;28;20094;-71
2021/08/06 09:01:35;;;;;;;7.10;3.40;;;29.90;63.00;;;;;;5065262;28;20037;-71
2021/08/06 09:04:17;;;;;;;9.05;3.80;;;30.10;62.20;;;;;;5033158;28;20029;-69
2021/08/06 09:06:44;;;;;;;7.85;3.28;;;30.40;61.70;;;;;;5032035;28;20061;-69
2021/08/06 09:09:20;;;;;;;5.13;3.15;;;30.80;60.00;;;;;;5033133;28;20033;-70
2021/08/06 09:11:47;;;;;;;6.68;3.60;;;31.40;59.50;;;;;;5021890;28;20029;-70
2021/08/06 09:14:27;;;;;;;5.70;2.80;;;31.90;57.80;;;;;;5032127;28;20028;-70
2021/08/06 09:17:03;;;;;;;5.00;2.80;;;32.40;55.60;;;;;;5033582;28;20020;-70
2021/08/06 09:19:38;;;;;;;5.55;2.70;;;32.90;54.80;;;;;;5036302;28;20470;-76
2021/08/06 09:22:15;;;;;;;6.13;2.70;;;32.80;52.30;;;;;;5035986;28;20060;-69
2021/08/06 09:25:12;;;;;;;4.97;2.85;;;32.40;51.70;;;;;;5037377;28;20029;-69
2021/08/06 09:27:47;;;;;;;6.45;3.00;;;31.90;51.90;;;;;;5017350;28;20702;-69
2021/08/06 09:30:32;;;;;;;8.60;3.17;;;31.50;52.20;;;;;;5016093;28;20360;-69
2021/08/06 09:32:58;;;;;;;9.15;3.92;;;31.10;53.20;;;;;;5014658;28;20030;-69
2021/08/06 09:35:31;;;;;;;6.00;3.20;;;30.80;53.20;;;;;;5015963;28;20522;-69
2021/08/06 09:37:57;;;;;;;7.88;3.50;;;30.60;53.10;;;;;;5014339;28;20407;-69
2021/08/06 09:40:26;;;;;;;10.15;3.55;;;30.40;53.70;;;;;;5016888;28;20049;-69
2021/08/06 09:42:59;;;;;;;6.82;2.90;;;30.30;54.20;;;;;;5015827;28;20371;-69
2021/08/06 09:45:36;;;;;;;5.80;3.30;;;30.40;54.40;;;;;;5015592;28;20132;-69
2021/08/06 09:48:03;;;;;;;7.93;3.10;;;30.70;55.00;;;;;;5017054;28;20029;-69
2021/08/06 09:50:44;;;;;;;7.35;3.20;;;31.20;54.10;;;;;;5016789;28;20036;-69
2021/08/06 09:53:10;;;;;;;5.95;3.33;;;31.30;53.20;;;;;;5016104;28;20479;-69
2021/08/06 09:55:39;;;;;;;5.15;2.47;;;31.30;53.30;;;;;;5016341;28;20023;-69
2021/08/06 09:58:09;;;;;;;9.50;4.15;;;31.20;52.90;;;;;;5016542;28;20120;-69
2021/08/06 10:00:44;;;;;;;8.80;3.47;;;31.30;52.20;;;;;;5018075;28;20116;-69
2021/08/06 10:03:28;;;;;;;8.15;2.78;;;31.20;52.00;;;;;;5036739;28;20029;-67
2021/08/06 10:06:13;;;;;;;7.38;4.03;;;31.10;51.80;;;;;;5036214;28;21441;-70
2021/08/06 10:08:40;;;;;;;9.40;3.42;;;31.20;51.90;;;;;;5034954;28;20032;-75
2021/08/06 10:11:06;;;;;;;7.88;3.22;;;31.30;52.00;;;;;;5036421;28;20021;-70
2021/08/06 10:13:32;;;;;;;6.15;2.90;;;31.30;51.70;;;;;;5035476;28;20376;-70
2021/08/06 10:15:58;;;;;;;8.23;3.47;;;31.10;51.10;;;;;;5035700;28;20379;-70
2021/08/06 10:18:24;;;;;;;9.45;3.30;;;31.20;52.10;;;;;;5033350;28;20032;-70
2021/08/06 10:20:50;;;;;;;6.55;3.30;;;31.60;52.10;;;;;;5034845;28;20013;-70
2021/08/06 10:23:16;;;;;;;7.97;3.10;;;31.90;51.60;;;;;;5034771;28;20081;-70
2021/08/06 10:25:43;;;;;;;8.02;3.75;;;32.10;51.30;;;;;;5034276;28;20022;-70
2021/08/06 10:28:08;;;;;;;10.88;3.35;;;32.50;51.40;;;;;;5034418;28;20054;-70
2021/08/06 10:30:39;;;;;;;6.80;2.97;;;32.80;51.10;;;;;;5033395;28;20415;-70
2021/08/06 10:33:22;;;;;;;9.63;3.15;;;33.10;50.50;;;;;;5034371;28;20379;-70
2021/08/06 10:35:53;;;;;;;7.68;3.20;;;33.40;50.40;;;;;;5036055;28;20421;-70
2021/08/06 10:38:43;;;;;;;8.38;3.00;;;33.60;50.20;;;;;;5034666;28;20517;-71
2021/08/06 10:41:17;;;;;;;8.90;3.40;;;33.90;50.20;;;;;;5035782;28;20036;-70
2021/08/06 10:44:03;;;;;;;5.20;3.00;;;34.10;49.50;;;;;;5034615;28;20053;-70
2021/08/06 10:46:50;;;;;;;8.15;3.13;;;34.10;49.70;;;;;;5034453;28;20105;-71
2021/08/06 10:49:15;;;;;;;5.68;2.90;;;34.10;49.90;;;;;;5034786;28;20426;-71
2021/08/06 10:51:41;;;;;;;6.35;3.50;;;34.20;49.70;;;;;;5034838;28;20017;-71
2021/08/06 10:54:07;;;;;;;12.98;3.85;;;34.40;49.90;;;;;;5034903;28;20049;-71
2021/08/06 10:56:37;;;;;;;10.13;3.67;;;34.80;49.70;;;;;;5035626;28;20025;-74
2021/08/06 10:59:13;;;;;;;5.82;3.35;;;35.20;48.10;;;;;;5034983;28;20096;-71
2021/08/06 11:01:48;;;;;;;5.38;3.10;;;35.50;47.40;;;;;;5033036;28;20055;-71
2021/08/06 11:04:16;;;;;;;7.20;3.40;;;35.80;47.20;;;;;;5035505;28;20033;-71
2021/08/06 11:06:48;;;;;;;7.07;3.65;;;35.80;47.20;;;;;;5035560;28;20103;-71
2021/08/06 11:09:26;;;;;;;6.53;3.35;;;36.00;47.60;;;;;;5035164;28;20017;-70
2021/08/06 11:12:02;;;;;;;7.97;4.30;;;36.10;47.10;;;;;;5035053;28;20123;-71
2021/08/06 11:14:30;;;;;;;11.35;3.90;;;35.80;46.30;;;;;;5035382;28;20524;-71
2021/08/06 11:17:11;;;;;;;7.85;4.35;;;35.70;46.70;;;;;;5033713;28;20033;-70
2021/08/06 11:19:44;;;;;;;9.70;4.80;;;35.60;47.20;;;;;;5033842;28;20031;-71
2021/08/06 11:22:17;;;;;;;12.88;5.22;;;35.40;48.50;;;;;;5034814;28;20030;-71
2021/08/06 11:24:45;;;;;;;10.45;4.57;;;35.10;49.40;;;;;;5035976;28;20367;-69
2021/08/06 11:27:12;;;;;;;9.52;5.93;;;34.60;49.60;;;;;;5034905;28;20018;-70
2021/08/06 11:29:39;;;;;;;13.73;5.95;;;34.10;51.60;;;;;;5034454;28;20068;-70
2021/08/06 11:32:08;;;;;;;11.73;6.00;;;33.60;52.90;;;;;;5034912;28;20049;-70
2021/08/06 11:34:55;;;;;;;11.32;6.50;;;33.00;53.80;;;;;;5034701;28;20018;-71
2021/08/06 11:37:22;;;;;;;12.35;9.02;;;32.50;55.00;;;;;;5034798;28;20017;-71
2021/08/06 11:40:10;;;;;;;12.73;8.00;;;32.00;57.50;;;;;;5035235;28;20079;-71
2021/08/06 11:42:38;;;;;;;10.68;7.47;;;31.30;59.30;;;;;;5034306;28;20036;-71
2021/08/06 11:45:10;;;;;;;15.95;7.57;;;30.90;60.30;;;;;;5034387;28;20111;-71
2021/08/06 11:47:47;;;;;;;12.80;6.80;;;30.50;61.60;;;;;;5032952;28;20021;-70
2021/08/06 11:50:18;;;;;;;15.27;6.28;;;30.20;61.20;;;;;;5033603;28;20025;-70
2021/08/06 11:52:49;;;;;;;8.82;5.10;;;30.00;60.70;;;;;;5034524;28;20072;-70
2021/08/06 11:55:18;;;;;;;9.90;6.55;;;29.80;59.60;;;;;;5033049;28;20027;-70
2021/08/06 11:57:46;;;;;;;14.80;5.60;;;29.60;59.40;;;;;;5032789;28;20052;-70
2021/08/06 12:00:21;;;;;;;14.55;6.05;;;29.50;59.40;;;;;;5034418;28;20026;-71
2021/08/06 12:02:58;;;;;;;19.25;7.70;;;29.40;61.20;;;;;;5032983;28;20033;-70
2021/08/06 12:05:24;;;;;;;10.02;6.53;;;29.20;61.10;;;;;;5032823;28;20026;-71
2021/08/06 12:07:50;;;;;;;10.98;5.72;;;29.00;61.80;;;;;;5033897;28;20056;-70
2021/08/06 12:10:16;;;;;;;17.20;10.85;;;28.70;62.30;;;;;;5033879;28;20025;-69
2021/08/06 12:12:42;;;;;;;17.45;8.75;;;28.50;63.20;;;;;;5034364;28;20025;-69
2021/08/06 12:15:25;;;;;;;14.75;7.78;;;28.30;64.70;;;;;;5034274;28;20026;-69
2021/08/06 12:18:12;;;;;;;11.35;8.05;;;28.10;66.70;;;;;;5032673;28;20067;-69
2021/08/06 12:20:46;;;;;;;12.40;8.10;;;27.80;68.00;;;;;;5032578;28;20029;-69
2021/08/06 12:23:14;;;;;;;19.30;10.75;;;27.50;69.00;;;;;;5032679;28;20042;-69
2021/08/06 12:26:11;;;;;;;16.70;9.93;;;27.30;69.90;;;;;;5034306;28;20032;-69
2021/08/06 12:28:40;;;;;;;35.00;12.15;;;27.10;70.40;;;;;;5032436;28;20033;-69
2021/08/06 12:31:07;;;;;;;14.88;7.07;;;26.80;71.00;;;;;;5032645;28;20332;-69
2021/08/06 12:33:33;;;;;;;20.02;7.70;;;26.30;72.50;;;;;;5032449;28;20079;-69
2021/08/06 12:36:18;;;;;;;12.52;6.22;;;25.70;74.30;;;;;;5065636;28;20029;-70
2021/08/06 12:38:45;;;;;;;8.17;5.00;;;25.00;75.60;;;;;;5033961;28;20057;-69
2021/08/06 12:41:31;;;;;;;9.60;5.03;;;24.20;78.10;;;;;;5033510;28;20322;-69